createdAt,value
2018-03-16T00:00:59.479Z,10.90
2018-03-16T00:03:26.527Z,10.23
2018-03-16T00:05:53.684Z,13.62
2018-03-16T00:08:20.529Z,11.73
2018-03-16T00:10:47.381Z,15.18
2018-03-16T00:13:14.519Z,11.15
2018-03-16T00:15:41.352Z,13.00
2018-03-16T00:18:08.204Z,12.13
2018-03-16T00:20:35.356Z,12.67
2018-03-16T00:23:02.189Z,12.35
2018-03-16T00:25:29.002Z,15.00
2018-03-16T00:27:55.908Z,15.45
2018-03-16T00:30:22.842Z,13.15
2018-03-16T00:32:49.980Z,15.32
2018-03-16T00:35:16.848Z,15.25
2018-03-16T00:37:43.717Z,14.45
2018-03-16T00:40:10.576Z,14.85
2018-03-16T00:42:37.759Z,14.48
2018-03-16T00:45:04.612Z,13.65
2018-03-16T00:47:31.463Z,12.82
2018-03-16T00:49:58.317Z,13.23
2018-03-16T00:52:25.156Z,14.20
2018-03-16T00:54:52.294Z,13.43
2018-03-16T00:57:19.156Z,12.80
2018-03-16T00:59:46.280Z,13.90
2018-03-16T01:02:13.144Z,13.30
2018-03-16T01:04:40.058Z,15.10
2018-03-16T01:07:06.883Z,16.67
2018-03-16T01:09:34.061Z,14.70
2018-03-16T01:12:00.977Z,15.50
2018-03-16T01:14:27.881Z,13.15
2018-03-16T01:16:54.760Z,15.38
2018-03-16T01:19:21.648Z,15.27
2018-03-16T01:21:48.792Z,13.98
2018-03-16T01:24:15.627Z,16.00
2018-03-16T01:26:42.500Z,13.27
2018-03-16T01:29:09.366Z,15.40
2018-03-16T01:31:36.237Z,13.77
2018-03-16T01:34:03.097Z,13.82
2018-03-16T01:36:29.928Z,14.25
2018-03-16T01:38:57.106Z,12.98
2018-03-16T01:41:23.964Z,14.93
2018-03-16T01:43:50.848Z,13.80
2018-03-16T01:46:18.048Z,13.20
2018-03-16T01:48:44.918Z,14.57
2018-03-16T01:51:12.079Z,13.80
2018-03-16T01:53:38.928Z,13.90
2018-03-16T01:56:05.811Z,14.43
2018-03-16T01:58:32.971Z,14.00
2018-03-16T02:00:59.795Z,16.65
2018-03-16T02:03:26.651Z,12.93
2018-03-16T02:05:53.475Z,12.57
2018-03-16T02:08:20.364Z,13.27
2018-03-16T02:10:47.219Z,12.68
2018-03-16T02:13:14.089Z,12.60
2018-03-16T02:15:40.937Z,12.70
2018-03-16T02:18:07.767Z,15.60
2018-03-16T02:20:34.606Z,12.65
2018-03-16T02:23:01.472Z,13.70
2018-03-16T02:25:28.341Z,15.25
2018-03-16T02:27:55.503Z,12.37
2018-03-16T02:30:22.323Z,12.48
2018-03-16T02:32:49.160Z,13.70
2018-03-16T02:35:16.232Z,12.98
2018-03-16T02:37:43.074Z,13.40
2018-03-16T02:40:10.226Z,13.35
2018-03-16T02:42:37.109Z,12.45
2018-03-16T02:45:03.961Z,14.43
2018-03-16T02:47:30.819Z,13.57
2018-03-16T02:49:57.693Z,12.52
2018-03-16T02:52:24.561Z,11.80
2018-03-16T02:54:51.383Z,13.90
2018-03-16T02:57:18.214Z,13.82
2018-03-16T02:59:45.080Z,14.15
2018-03-16T03:02:11.933Z,13.68
2018-03-16T03:04:38.800Z,11.95
2018-03-16T03:07:05.652Z,13.27
2018-03-16T03:09:32.508Z,13.10
2018-03-16T03:11:59.331Z,12.13
2018-03-16T03:14:26.210Z,11.35
2018-03-16T03:16:53.072Z,13.18
2018-03-16T03:19:19.952Z,12.70
2018-03-16T03:21:46.812Z,12.40
2018-03-16T03:24:14.028Z,12.32
2018-03-16T03:26:40.859Z,11.12
2018-03-16T03:29:07.718Z,12.10
2018-03-16T03:31:34.553Z,9.55
2018-03-16T03:34:01.706Z,12.57
2018-03-16T03:36:28.506Z,10.90
2018-03-16T03:38:55.371Z,12.40
2018-03-16T03:41:22.209Z,11.38
2018-03-16T03:43:49.044Z,10.07
2018-03-16T03:46:15.880Z,10.70
2018-03-16T03:48:42.700Z,10.73
2018-03-16T03:51:09.811Z,12.27
2018-03-16T03:53:36.955Z,9.98
2018-03-16T03:56:03.809Z,9.93
2018-03-16T03:58:30.692Z,10.20
2018-03-16T04:00:57.506Z,10.47
2018-03-16T04:03:24.364Z,9.77
2018-03-16T04:05:51.476Z,9.97
2018-03-16T04:08:18.537Z,11.02
2018-03-16T04:10:45.397Z,11.18
2018-03-16T04:13:12.244Z,10.20
2018-03-16T04:15:39.093Z,10.10
2018-03-16T04:18:06.312Z,10.75
2018-03-16T04:20:33.155Z,8.57
2018-03-16T04:22:59.983Z,10.75
2018-03-16T04:25:26.864Z,9.95
2018-03-16T04:27:53.714Z,9.80
2018-03-16T04:30:20.832Z,9.35
2018-03-16T04:32:47.647Z,9.00
2018-03-16T04:35:14.504Z,9.13
2018-03-16T04:37:41.366Z,8.70
2018-03-16T04:40:08.240Z,8.13
2018-03-16T04:42:35.084Z,7.93
2018-03-16T04:45:02.212Z,8.55
2018-03-16T04:47:29.076Z,8.80
2018-03-16T04:49:55.944Z,7.80
2018-03-16T04:52:22.760Z,7.30
2018-03-16T04:54:49.879Z,8.15
2018-03-16T04:57:16.745Z,8.23
2018-03-16T04:59:43.871Z,7.78
2018-03-16T05:02:10.728Z,8.25
2018-03-16T05:04:37.868Z,9.05
2018-03-16T05:07:04.679Z,8.18
2018-03-16T05:09:31.559Z,7.57
2018-03-16T05:11:58.401Z,8.15
2018-03-16T05:14:25.471Z,7.70
2018-03-16T05:16:52.324Z,6.62
2018-03-16T05:19:19.434Z,6.75
2018-03-16T05:21:46.241Z,7.53
2018-03-16T05:24:13.436Z,6.95
2018-03-16T05:26:40.635Z,7.12
2018-03-16T05:29:07.483Z,9.07
2018-03-16T05:31:34.340Z,5.82
2018-03-16T05:34:01.415Z,7.20
2018-03-16T05:36:28.229Z,6.43
2018-03-16T05:38:55.059Z,6.55
2018-03-16T05:41:21.906Z,7.15
2018-03-16T05:43:49.022Z,10.50
2018-03-16T05:46:15.847Z,6.87
2018-03-16T05:48:42.720Z,8.45
2018-03-16T05:51:09.831Z,7.15
2018-03-16T05:53:36.673Z,6.73
2018-03-16T05:56:03.528Z,6.20
2018-03-16T05:58:30.674Z,7.60
2018-03-16T06:00:57.553Z,5.93
2018-03-16T06:03:24.659Z,5.55
2018-03-16T06:05:51.817Z,5.37
2018-03-16T06:08:18.652Z,6.07
2018-03-16T06:10:45.549Z,5.82
2018-03-16T06:13:12.374Z,7.82
2018-03-16T06:15:39.496Z,5.28
2018-03-16T06:18:06.339Z,5.70
2018-03-16T06:20:33.183Z,5.20
2018-03-16T06:23:00.038Z,8.02
2018-03-16T06:25:26.857Z,5.22
2018-03-16T06:27:54.016Z,5.57
2018-03-16T06:30:20.835Z,4.80
2018-03-16T06:32:47.678Z,7.10
2018-03-16T06:35:14.540Z,5.07
2018-03-16T06:37:41.347Z,5.47
2018-03-16T06:40:08.540Z,7.22
2018-03-16T06:42:35.351Z,5.10
2018-03-16T06:45:02.475Z,4.90
2018-03-16T06:47:29.247Z,4.70
2018-03-16T06:49:56.104Z,6.07
2018-03-16T06:52:22.948Z,5.00
2018-03-16T06:54:49.820Z,7.62
2018-03-16T06:57:16.642Z,5.45
2018-03-16T06:59:43.795Z,5.15
2018-03-16T07:02:10.652Z,4.60
2018-03-16T07:04:37.792Z,5.50
2018-03-16T07:07:04.835Z,4.68
2018-03-16T07:09:31.710Z,7.13
2018-03-16T07:11:58.833Z,5.13
2018-03-16T07:14:25.732Z,5.30
2018-03-16T07:16:52.823Z,5.18
2018-03-16T07:19:19.971Z,5.25
2018-03-16T07:21:46.821Z,4.30
2018-03-16T07:24:13.634Z,7.57
2018-03-16T07:26:40.812Z,4.50
2018-03-16T07:29:08.044Z,4.35
2018-03-16T07:31:34.957Z,4.65
2018-03-16T07:34:02.058Z,5.10
2018-03-16T07:36:28.884Z,5.72
2018-03-16T07:38:55.714Z,10.20
2018-03-16T07:41:22.543Z,4.90
2018-03-16T07:43:49.741Z,8.60
2018-03-16T07:46:16.890Z,6.97
2018-03-16T07:48:43.738Z,5.80
2018-03-16T07:51:10.570Z,4.40
2018-03-16T07:53:37.623Z,4.40
2018-03-16T07:56:04.455Z,4.68
2018-03-16T07:58:31.292Z,4.65
2018-03-16T08:00:58.186Z,6.45
2018-03-16T08:03:25.069Z,5.35
2018-03-16T08:05:52.144Z,4.40
2018-03-16T08:08:18.985Z,3.90
2018-03-16T08:10:45.881Z,4.35
2018-03-16T08:13:12.979Z,4.20
2018-03-16T08:15:40.138Z,6.95
2018-03-16T08:18:06.948Z,4.93
2018-03-16T08:20:33.788Z,5.40
2018-03-16T08:23:00.595Z,6.60
2018-03-16T08:25:27.444Z,8.00
2018-03-16T08:27:54.280Z,6.95
2018-03-16T08:30:21.746Z,4.05
2018-03-16T08:32:48.851Z,5.65
2018-03-16T08:35:15.675Z,5.05
2018-03-16T08:37:42.556Z,4.72
2018-03-16T08:40:09.383Z,4.28
2018-03-16T08:42:36.244Z,3.40
2018-03-16T08:45:03.064Z,4.07
2018-03-16T08:47:30.215Z,8.40
2018-03-16T08:49:57.096Z,8.40
2018-03-16T08:52:24.211Z,4.55
2018-03-16T08:54:51.056Z,3.97
2018-03-16T08:57:17.882Z,4.40
2018-03-16T08:59:45.085Z,4.00
2018-03-16T09:02:11.967Z,3.90
2018-03-16T09:04:38.815Z,4.70
2018-03-16T09:07:05.905Z,3.50
2018-03-16T09:09:32.707Z,3.70
2018-03-16T09:11:59.576Z,3.75
2018-03-16T09:14:26.724Z,4.90
2018-03-16T09:16:53.624Z,3.53
2018-03-16T09:19:20.715Z,5.72
2018-03-16T09:21:47.567Z,4.10
2018-03-16T09:24:14.380Z,6.60
2018-03-16T09:26:41.337Z,3.85
2018-03-16T09:29:08.153Z,4.03
2018-03-16T09:31:35.345Z,3.45
2018-03-16T09:34:02.188Z,3.58
2018-03-16T09:36:29.057Z,4.47
2018-03-16T09:38:56.186Z,7.80
2018-03-16T09:41:23.033Z,3.50
2018-03-16T09:43:50.173Z,4.90
2018-03-16T09:46:17.328Z,3.50
2018-03-16T09:48:44.150Z,4.55
2018-03-16T09:51:11.000Z,3.75
2018-03-16T09:53:37.798Z,9.32
2018-03-16T09:56:04.682Z,3.40
2018-03-16T09:58:31.767Z,3.30
2018-03-16T10:00:58.591Z,3.40
2018-03-16T10:03:25.434Z,3.50
2018-03-16T10:05:52.583Z,5.90
2018-03-16T10:08:19.391Z,5.00
2018-03-16T10:10:46.212Z,3.50
2018-03-16T10:13:13.317Z,4.15
2018-03-16T10:15:40.143Z,4.62
2018-03-16T10:18:07.312Z,3.53
2018-03-16T10:20:34.140Z,4.37
2018-03-16T10:23:01.007Z,8.48
2018-03-16T10:25:28.092Z,6.53
2018-03-16T10:27:54.965Z,7.80
2018-03-16T10:30:22.035Z,2.60
2018-03-16T10:32:48.867Z,4.37
2018-03-16T10:35:15.927Z,4.43
2018-03-16T10:37:42.807Z,3.20
2018-03-16T10:40:09.620Z,2.85
2018-03-16T10:42:36.768Z,8.35
2018-03-16T10:45:03.624Z,5.50
2018-03-16T10:47:30.760Z,5.90
2018-03-16T10:49:57.597Z,2.30
2018-03-16T10:52:24.447Z,2.83
2018-03-16T10:54:51.284Z,3.67
2018-03-16T10:57:18.440Z,3.17
2018-03-16T10:59:45.284Z,4.57
2018-03-16T11:02:12.450Z,2.87
2018-03-16T11:04:39.584Z,3.42
2018-03-16T11:07:06.733Z,2.20
2018-03-16T11:09:33.572Z,2.22
2018-03-16T11:12:00.391Z,5.20
2018-03-16T11:14:27.248Z,6.82
2018-03-16T11:16:54.077Z,3.20
2018-03-16T11:19:20.924Z,3.55
2018-03-16T11:21:47.995Z,5.55
2018-03-16T11:24:15.052Z,3.65
2018-03-16T11:26:41.869Z,2.10
2018-03-16T11:29:08.691Z,2.22
2018-03-16T11:31:35.785Z,2.45
2018-03-16T11:34:02.602Z,2.50
2018-03-16T11:36:29.467Z,2.35
2018-03-16T11:38:56.324Z,3.10
2018-03-16T11:41:23.460Z,4.80
2018-03-16T11:43:50.332Z,4.65
2018-03-16T11:46:17.172Z,10.73
2018-03-16T11:48:44.297Z,2.67
2018-03-16T11:51:11.448Z,5.28
2018-03-16T11:53:38.701Z,1.80
2018-03-16T11:56:05.856Z,3.05
2018-03-16T11:58:33.698Z,2.40
2018-03-16T12:01:00.623Z,2.70
2018-03-16T12:03:27.468Z,2.60
2018-03-16T12:05:54.280Z,3.10
2018-03-16T12:08:21.117Z,3.67
2018-03-16T12:10:48.283Z,5.80
2018-03-16T12:13:15.130Z,2.75
2018-03-16T12:15:41.973Z,2.95
2018-03-16T12:18:08.847Z,4.30
2018-03-16T12:20:35.700Z,5.20
2018-03-16T12:23:02.558Z,4.30
2018-03-16T12:25:29.404Z,2.92
2018-03-16T12:27:56.232Z,2.40
2018-03-16T12:30:23.073Z,6.43
2018-03-16T12:32:50.240Z,2.45
2018-03-16T12:35:17.047Z,3.45
2018-03-16T12:37:43.925Z,5.07
2018-03-16T12:40:10.777Z,2.37
2018-03-16T12:42:37.915Z,4.20
2018-03-16T12:45:04.796Z,3.10
2018-03-16T12:47:31.635Z,3.95
2018-03-16T12:49:58.493Z,2.62
2018-03-16T12:52:25.337Z,2.95
2018-03-16T12:54:52.548Z,2.15
2018-03-16T12:57:19.360Z,5.75
2018-03-16T12:59:46.205Z,1.60
2018-03-16T13:02:13.279Z,2.00
2018-03-16T13:04:40.370Z,2.90
2018-03-16T13:07:07.213Z,2.90
2018-03-16T13:09:34.317Z,3.55
2018-03-16T13:12:01.371Z,6.50
2018-03-16T13:14:28.646Z,6.85
2018-03-16T13:16:56.075Z,6.60
2018-03-16T13:19:23.232Z,2.67
2018-03-16T13:21:50.479Z,4.47
2018-03-16T13:24:17.340Z,2.35
2018-03-16T13:26:44.184Z,4.30
2018-03-16T13:29:11.247Z,4.12
2018-03-16T13:31:38.368Z,3.00
2018-03-16T13:34:05.217Z,2.62
2018-03-16T13:36:32.050Z,4.85
2018-03-16T13:38:59.203Z,2.60
2018-03-16T13:41:26.247Z,3.78
2018-03-16T13:43:53.409Z,5.60
2018-03-16T13:46:20.251Z,5.95
2018-03-16T13:48:47.096Z,7.95
2018-03-16T13:51:13.914Z,3.50
2018-03-16T13:53:40.723Z,2.03
2018-03-16T13:56:07.543Z,10.80
2018-03-16T13:58:34.684Z,3.10
2018-03-16T14:01:01.509Z,6.20
2018-03-16T14:03:28.368Z,2.90
2018-03-16T14:05:55.213Z,3.10
2018-03-16T14:08:22.081Z,1.90
2018-03-16T14:10:49.189Z,4.30
2018-03-16T14:13:16.053Z,3.25
2018-03-16T14:15:43.184Z,2.00
2018-03-16T14:18:10.336Z,4.18
2018-03-16T14:20:37.184Z,3.57
2018-03-16T14:23:04.026Z,1.70
2018-03-16T14:25:31.163Z,2.25
2018-03-16T14:27:58.323Z,3.72
2018-03-16T14:30:25.468Z,3.45
2018-03-16T14:32:52.618Z,1.83
2018-03-16T14:35:19.487Z,2.08
2018-03-16T14:37:46.620Z,2.90
2018-03-16T14:40:13.438Z,2.50
2018-03-16T14:42:40.609Z,1.87
2018-03-16T14:45:07.472Z,7.90
2018-03-16T14:47:34.596Z,3.42
2018-03-16T14:50:01.753Z,2.97
2018-03-16T14:52:28.906Z,2.97
2018-03-16T14:54:55.759Z,2.67
2018-03-16T14:57:22.897Z,1.70
2018-03-16T14:59:49.712Z,7.00
2018-03-16T15:02:16.886Z,4.62
2018-03-16T15:04:44.037Z,8.90
2018-03-16T15:07:10.931Z,4.22
2018-03-16T15:09:37.818Z,1.40
2018-03-16T15:12:04.651Z,1.70
2018-03-16T15:14:31.822Z,2.90
2018-03-16T15:16:58.673Z,1.80
2018-03-16T15:19:25.984Z,4.75
2018-03-16T15:21:52.811Z,2.03
2018-03-16T15:24:19.632Z,7.00
2018-03-16T15:26:46.460Z,1.50
2018-03-16T15:29:13.595Z,2.95
2018-03-16T15:31:40.756Z,2.87
2018-03-16T15:34:07.592Z,3.03
2018-03-16T15:36:34.437Z,4.55
2018-03-16T15:39:01.239Z,3.10
2018-03-16T15:41:28.112Z,3.20
2018-03-16T15:43:55.267Z,6.50
2018-03-16T15:46:22.116Z,2.35
2018-03-16T15:48:48.931Z,3.17
2018-03-16T15:51:15.816Z,3.40
2018-03-16T15:53:42.689Z,2.45
2018-03-16T15:56:09.795Z,1.80
2018-03-16T15:58:36.612Z,3.28
2018-03-16T16:01:03.463Z,5.60
2018-03-16T16:03:30.325Z,2.90
2018-03-16T16:05:57.200Z,3.97
2018-03-16T16:08:24.053Z,1.40
2018-03-16T16:10:50.875Z,3.40
2018-03-16T16:13:17.679Z,4.82
2018-03-16T16:15:44.843Z,6.10
2018-03-16T16:18:11.721Z,1.70
2018-03-16T16:20:39.062Z,11.55
2018-03-16T16:23:06.274Z,6.03
2018-03-16T16:25:33.209Z,5.35
2018-03-16T16:28:00.063Z,4.95
2018-03-16T16:30:26.889Z,3.70
2018-03-16T16:32:53.994Z,2.62
2018-03-16T16:35:20.861Z,2.00
2018-03-16T16:37:47.716Z,3.70
2018-03-16T16:40:14.693Z,2.80
2018-03-16T16:42:41.761Z,4.27
2018-03-16T16:45:08.611Z,1.92
2018-03-16T16:47:35.453Z,1.60
2018-03-16T16:50:02.337Z,4.12
2018-03-16T16:52:29.163Z,3.17
2018-03-16T16:54:56.311Z,1.20
2018-03-16T16:57:23.261Z,2.20
2018-03-16T16:59:50.167Z,9.10
2018-03-16T17:02:16.980Z,3.67
2018-03-16T17:04:43.800Z,3.05
2018-03-16T17:07:10.633Z,3.35
2018-03-16T17:09:37.765Z,1.23
2018-03-16T17:12:04.626Z,1.70
2018-03-16T17:14:31.749Z,9.73
2018-03-16T17:16:58.588Z,3.43
2018-03-16T17:19:25.438Z,2.10
2018-03-16T17:21:52.578Z,3.20
2018-03-16T17:24:19.635Z,1.80
2018-03-16T17:26:46.785Z,3.15
2018-03-16T17:29:13.624Z,3.22
2018-03-16T17:31:40.485Z,1.70
2018-03-16T17:34:07.307Z,1.20
2018-03-16T17:36:34.463Z,1.65
2018-03-16T17:39:01.613Z,2.50
2018-03-16T17:41:28.760Z,5.03
2018-03-16T17:43:55.803Z,2.78
2018-03-16T17:46:22.651Z,2.35
2018-03-16T17:48:49.804Z,2.60
2018-03-16T17:51:16.951Z,4.32
2018-03-16T17:53:43.766Z,3.17
2018-03-16T17:56:10.577Z,2.27
2018-03-16T17:58:37.683Z,4.47
2018-03-16T18:01:04.840Z,2.35
2018-03-16T18:03:31.708Z,1.92
2018-03-16T18:05:58.833Z,6.37
2018-03-16T18:08:25.673Z,5.35
2018-03-16T18:10:52.825Z,3.37
2018-03-16T18:13:19.661Z,4.13
2018-03-16T18:15:46.521Z,2.10
2018-03-16T18:18:13.365Z,2.70
2018-03-16T18:20:40.186Z,2.30
2018-03-16T18:23:06.999Z,2.10
2018-03-16T18:25:34.193Z,9.10
2018-03-16T18:28:01.030Z,1.20
2018-03-16T18:30:27.841Z,14.32
2018-03-16T18:32:54.719Z,3.00
2018-03-16T18:35:21.558Z,2.10
2018-03-16T18:37:48.411Z,3.60
2018-03-16T18:40:15.589Z,3.83
2018-03-16T18:42:42.703Z,1.42
2018-03-16T18:45:09.751Z,2.10
2018-03-16T18:47:36.577Z,1.52
2018-03-16T18:50:03.393Z,1.70
2018-03-16T18:52:30.223Z,1.60
2018-03-16T18:54:57.023Z,3.70
2018-03-16T18:57:23.880Z,1.40
2018-03-16T18:59:51.556Z,2.40
2018-03-16T19:02:18.686Z,2.60
2018-03-16T19:04:45.828Z,6.00
2018-03-16T19:07:12.985Z,1.70
2018-03-16T19:09:39.823Z,2.97
2018-03-16T19:12:06.976Z,2.90
2018-03-16T19:14:33.860Z,2.95
2018-03-16T19:17:00.692Z,1.40
2018-03-16T19:19:27.517Z,3.80
2018-03-16T19:21:54.347Z,3.05
2018-03-16T19:24:21.407Z,2.00
2018-03-16T19:26:48.239Z,2.78
2018-03-16T19:29:15.045Z,5.35
2018-03-16T19:31:42.236Z,3.78
2018-03-16T19:34:09.048Z,1.92
2018-03-16T19:36:36.229Z,5.97
2018-03-16T19:39:03.067Z,2.92
2018-03-16T19:41:29.976Z,5.10
2018-03-16T19:43:56.779Z,2.33
2018-03-16T19:46:23.615Z,2.60
2018-03-16T19:48:50.756Z,2.90
2018-03-16T19:51:17.900Z,1.90
2018-03-16T19:53:44.719Z,3.00
2018-03-16T19:56:11.565Z,5.40
2018-03-16T19:58:38.752Z,4.78
2018-03-16T20:01:05.894Z,6.70
2018-03-16T20:03:32.751Z,3.97
2018-03-16T20:05:59.623Z,4.20
2018-03-16T20:08:26.447Z,3.83
2018-03-16T20:10:53.563Z,3.90
2018-03-16T20:13:20.721Z,4.28
2018-03-16T20:15:47.872Z,5.50
2018-03-16T20:18:14.776Z,3.28
2018-03-16T20:20:41.587Z,3.87
2018-03-16T20:23:08.403Z,2.53
2018-03-16T20:25:35.248Z,2.17
2018-03-16T20:28:02.104Z,3.00
2018-03-16T20:30:28.927Z,4.10
2018-03-16T20:32:55.743Z,5.53
2018-03-16T20:35:22.585Z,1.90
2018-03-16T20:37:49.407Z,3.47
2018-03-16T20:40:16.223Z,7.40
2018-03-16T20:42:43.349Z,3.00
2018-03-16T20:45:10.396Z,3.83
2018-03-16T20:47:37.265Z,3.25
2018-03-16T20:50:04.129Z,3.20
2018-03-16T20:52:30.980Z,2.17
2018-03-16T20:54:57.820Z,2.65
2018-03-16T20:57:25.022Z,3.17
2018-03-16T20:59:51.872Z,3.50
2018-03-16T21:02:18.698Z,2.53
2018-03-16T21:04:45.855Z,3.67
2018-03-16T21:07:12.700Z,2.00
2018-03-16T21:09:39.556Z,7.03
2018-03-16T21:12:06.368Z,4.22
2018-03-16T21:14:33.540Z,1.90
2018-03-16T21:17:00.369Z,2.90
2018-03-16T21:19:27.192Z,2.75
2018-03-16T21:21:54.376Z,2.83
2018-03-16T21:24:21.520Z,3.97
2018-03-16T21:26:48.335Z,2.47
2018-03-16T21:29:15.154Z,1.80
2018-03-16T21:31:42.015Z,2.87
2018-03-16T21:34:08.890Z,2.25
2018-03-16T21:36:35.723Z,1.50
2018-03-16T21:39:02.603Z,2.05
2018-03-16T21:41:29.460Z,1.50
2018-03-16T21:43:56.317Z,1.90
2018-03-16T21:46:23.135Z,3.28
2018-03-16T21:48:49.952Z,4.20
2018-03-16T21:51:16.770Z,2.37
2018-03-16T21:53:43.844Z,2.40
2018-03-16T21:56:11.002Z,1.60
2018-03-16T21:58:37.847Z,1.83
2018-03-16T22:01:04.988Z,1.70
2018-03-16T22:03:31.860Z,1.90
2018-03-16T22:05:58.999Z,2.90
2018-03-16T22:08:26.136Z,3.40
2018-03-16T22:10:52.939Z,3.97
2018-03-16T22:13:19.779Z,3.10
2018-03-16T22:15:46.643Z,3.42
2018-03-16T22:18:13.489Z,5.60
2018-03-16T22:20:40.355Z,4.07
2018-03-16T22:23:07.175Z,2.45
2018-03-16T22:25:34.010Z,3.03
2018-03-16T22:28:00.863Z,2.20
2018-03-16T22:30:27.741Z,1.40
2018-03-16T22:32:54.630Z,2.75
2018-03-16T22:35:21.718Z,1.85
2018-03-16T22:37:48.764Z,1.60
2018-03-16T22:40:15.590Z,2.20
2018-03-16T22:42:42.395Z,3.40
2018-03-16T22:45:09.217Z,1.50
2018-03-16T22:47:36.292Z,1.40
2018-03-16T22:50:03.158Z,2.12
2018-03-16T22:52:30.025Z,2.53
2018-03-16T22:54:56.869Z,1.98
2018-03-16T22:57:23.712Z,2.58
2018-03-16T22:59:50.580Z,1.45
2018-03-16T23:02:17.396Z,1.40
2018-03-16T23:04:44.264Z,1.77
2018-03-16T23:07:11.308Z,2.25
2018-03-16T23:09:38.153Z,2.60
2018-03-16T23:12:04.989Z,2.20
2018-03-16T23:14:32.132Z,2.40
2018-03-16T23:16:58.997Z,1.42
2018-03-16T23:19:25.829Z,1.87
2018-03-16T23:21:52.704Z,2.25
2018-03-16T23:24:19.536Z,5.43
2018-03-16T23:26:46.371Z,1.40
2018-03-16T23:29:13.490Z,1.70
2018-03-16T23:31:40.295Z,2.30
2018-03-16T23:34:07.389Z,1.30
2018-03-16T23:36:34.586Z,2.40
2018-03-16T23:39:01.690Z,4.10
2018-03-16T23:41:28.544Z,1.80
2018-03-16T23:43:56.450Z,2.53
2018-03-16T23:46:23.289Z,2.90
2018-03-16T23:48:50.128Z,3.40
2018-03-16T23:51:17.006Z,3.12
2018-03-16T23:53:43.815Z,1.40
2018-03-16T23:56:10.665Z,1.50
2018-03-16T23:58:37.502Z,1.62
